Time;durP1;ratioP1;P1;durP2;ratioP2;P2;SDS_P1;SDS_P2;PMS_P1;PMS_P2;Temp;Humidity;BMP_temperature;BMP_pressure;BME280_temperature;BME280_humidity;BME280_pressure;Samples;Min_cycle;Max_cycle;Signal;HPM_P1;HPM_P2
2021/12/27 00:00:52;;;;;;;4.07;1.03;;;-12.20;99.90;;;;;;2220192;64;20499;-37
2021/12/27 00:03:25;;;;;;;5.30;1.60;;;-12.20;99.90;;;;;;2217031;64;20092;-37
2021/12/27 00:05:57;;;;;;;4.40;1.33;;;-12.20;99.90;;;;;;2217228;64;20475;-37
2021/12/27 00:08:29;;;;;;;4.50;1.60;;;-12.20;99.90;;;;;;2220186;64;20107;-38
2021/12/27 00:11:01;;;;;;;3.33;1.03;;;-12.20;99.90;;;;;;2217042;64;20100;-37
2021/12/27 00:13:34;;;;;;;4.23;1.63;;;-12.20;99.90;;;;;;2219828;64;20088;-39
2021/12/27 00:16:06;;;;;;;3.03;1.10;;;-12.10;99.90;;;;;;2220009;64;20097;-37
2021/12/27 00:18:38;;;;;;;4.43;0.90;;;-12.20;99.90;;;;;;2216752;64;20504;-37
2021/12/27 00:21:11;;;;;;;1.33;0.80;;;-12.30;99.90;;;;;;2219820;64;20081;-39
2021/12/27 00:23:43;;;;;;;4.97;1.70;;;-12.40;99.90;;;;;;2216900;64;20088;-36
2021/12/27 00:26:15;;;;;;;2.00;0.93;;;-12.40;99.90;;;;;;2219960;64;20088;-38
2021/12/27 00:28:48;;;;;;;1.70;0.80;;;-12.40;99.90;;;;;;2220391;64;20604;-37
2021/12/27 00:31:20;;;;;;;2.10;1.00;;;-12.40;99.90;;;;;;2216911;64;20099;-37
2021/12/27 00:33:52;;;;;;;5.57;1.40;;;-12.40;99.90;;;;;;2219856;64;20100;-36
2021/12/27 00:36:25;;;;;;;3.77;1.27;;;-12.40;99.90;;;;;;2219884;64;20143;-38
2021/12/27 00:38:57;;;;;;;2.40;1.07;;;-12.30;99.90;;;;;;2219893;64;20179;-38
2021/12/27 00:41:41;;;;;;;4.33;1.47;;;-12.40;99.90;;;;;;2219099;64;20550;-37
2021/12/27 00:44:28;;;;;;;3.17;1.10;;;-12.30;99.90;;;;;;2218952;64;20093;-37
2021/12/27 00:47:08;;;;;;;4.20;0.93;;;-12.30;99.90;;;;;;2216103;64;20097;-38
2021/12/27 00:49:41;;;;;;;5.75;1.90;;;-12.30;99.90;;;;;;2216149;64;20097;-37
2021/12/27 00:52:13;;;;;;;4.17;1.43;;;-12.20;99.90;;;;;;2213076;64;20123;-39
2021/12/27 00:54:48;;;;;;;4.47;1.80;;;-12.20;99.90;;;;;;2216133;64;20124;-37
2021/12/27 00:57:20;;;;;;;;;;;-12.20;99.90;;;;;;2213280;64;20171;-38
2021/12/27 00:59:53;;;;;;;4.10;1.70;;;-12.10;99.90;;;;;;2216473;64;20052;-37
2021/12/27 01:02:25;;;;;;;7.47;1.10;;;-12.10;99.90;;;;;;2213342;64;20500;-37
2021/12/27 01:04:57;;;;;;;5.23;1.60;;;-12.20;99.90;;;;;;2216288;64;20089;-37
2021/12/27 01:07:32;;;;;;;3.63;1.03;;;-12.20;99.90;;;;;;2216382;64;20542;-36
2021/12/27 01:10:24;;;;;;;4.60;1.80;;;-12.20;99.90;;;;;;2217358;64;20531;-37
2021/12/27 01:13:20;;;;;;;2.97;1.33;;;-12.30;99.90;;;;;;2217323;64;20101;-37
2021/12/27 01:16:14;;;;;;;;;;;-12.30;99.90;;;;;;2217609;64;20088;-38
2021/12/27 01:18:57;;;;;;;2.83;1.20;;;-12.30;99.90;;;;;;2217278;64;19977;-37
2021/12/27 01:21:50;;;;;;;3.20;1.83;;;-12.30;99.90;;;;;;2217184;64;20147;-36
2021/12/27 01:24:27;;;;;;;5.17;1.63;;;-12.30;99.90;;;;;;2217130;64;20089;-37
2021/12/27 01:27:02;;;;;;;2.93;0.97;;;-12.40;99.90;;;;;;2217141;64;20097;-38
2021/12/27 01:29:35;;;;;;;2.75;0.90;;;-12.30;99.90;;;;;;2217139;64;20077;-37
2021/12/27 01:32:07;;;;;;;3.63;1.70;;;-12.30;99.90;;;;;;2217140;64;20103;-38
2021/12/27 01:34:40;;;;;;;4.47;1.47;;;-12.30;99.90;;;;;;2217198;64;20119;-37
2021/12/27 01:37:13;;;;;;;3.60;1.40;;;-12.20;99.90;;;;;;2217099;64;20148;-38
2021/12/27 01:39:46;;;;;;;3.60;2.13;;;-12.20;99.90;;;;;;2214686;64;20100;-38
2021/12/27 01:42:19;;;;;;;6.20;1.77;;;-12.20;99.90;;;;;;2221096;64;20152;-37
2021/12/27 01:44:51;;;;;;;7.37;1.90;;;-12.20;99.90;;;;;;2221052;64;20100;-36
2021/12/27 01:47:27;;;;;;;1.83;0.70;;;-12.20;99.90;;;;;;2221139;64;20563;-37
2021/12/27 01:50:00;;;;;;;5.37;1.37;;;-12.20;99.90;;;;;;2218046;64;20193;-38
2021/12/27 01:52:33;;;;;;;2.10;1.10;;;-12.20;99.90;;;;;;2220793;64;20119;-37
2021/12/27 01:55:06;;;;;;;6.37;2.50;;;-12.20;99.90;;;;;;2220978;64;20091;-38
2021/12/27 01:57:39;;;;;;;3.80;1.93;;;-12.10;99.90;;;;;;2221093;64;20107;-37
2021/12/27 02:00:13;;;;;;;4.13;1.50;;;-12.00;99.90;;;;;;2221120;64;20564;-37
2021/12/27 02:02:46;;;;;;;4.13;0.90;;;-11.90;99.90;;;;;;2221201;64;20111;-37
2021/12/27 02:05:18;;;;;;;2.60;1.60;;;-11.80;99.90;;;;;;2221148;64;20127;-37
2021/12/27 02:07:52;;;;;;;4.20;1.07;;;-11.80;99.90;;;;;;2221246;64;20203;-37
2021/12/27 02:10:24;;;;;;;4.93;1.27;;;-11.70;99.90;;;;;;2221187;64;20077;-38
2021/12/27 02:12:57;;;;;;;4.87;1.73;;;-11.70;99.90;;;;;;2218132;64;20169;-37
2021/12/27 02:15:29;;;;;;;4.60;1.57;;;-11.70;99.90;;;;;;2224215;64;20081;-38
2021/12/27 02:18:02;;;;;;;3.40;1.00;;;-11.80;99.90;;;;;;2218284;64;20193;-38
2021/12/27 02:20:35;;;;;;;8.17;1.80;;;-11.80;99.90;;;;;;2220523;64;20548;-37
2021/12/27 02:23:15;;;;;;;2.57;1.30;;;-11.90;99.90;;;;;;2220272;64;20119;-38
2021/12/27 02:25:50;;;;;;;5.37;1.73;;;-11.80;99.90;;;;;;2220646;64;20100;-38
2021/12/27 02:28:23;;;;;;;5.23;1.53;;;-11.80;99.90;;;;;;2220471;64;20158;-39
2021/12/27 02:30:55;;;;;;;6.27;1.20;;;-11.80;99.90;;;;;;2220598;64;20105;-38
2021/12/27 02:33:31;;;;;;;3.87;1.33;;;-11.80;99.90;;;;;;2217289;64;20097;-37
2021/12/27 02:36:05;;;;;;;9.17;2.50;;;-11.80;99.90;;;;;;2220437;64;20584;-37
2021/12/27 02:38:39;;;;;;;2.95;1.63;;;-11.80;99.90;;;;;;2220368;64;20088;-37
2021/12/27 02:41:12;;;;;;;4.82;1.52;;;-11.80;99.90;;;;;;2219444;64;20096;-38
2021/12/27 02:43:44;;;;;;;4.37;1.30;;;-11.70;99.90;;;;;;2215413;64;20104;-38
2021/12/27 02:46:16;;;;;;;5.60;1.33;;;-11.70;99.90;;;;;;2212397;64;20186;-39
2021/12/27 02:48:49;;;;;;;4.70;1.43;;;-11.80;99.90;;;;;;2215554;64;20081;-39
2021/12/27 02:51:21;;;;;;;4.43;2.43;;;-11.90;99.90;;;;;;2212195;64;20108;-39
2021/12/27 02:53:54;;;;;;;3.33;1.63;;;-12.00;99.90;;;;;;2215294;64;20144;-38
2021/12/27 02:56:29;;;;;;;3.17;1.47;;;-12.10;99.90;;;;;;2212511;64;20081;-38
2021/12/27 02:59:02;;;;;;;5.40;1.73;;;-12.10;99.90;;;;;;2212330;64;20080;-38
2021/12/27 03:01:35;;;;;;;5.20;1.40;;;-12.20;99.90;;;;;;2212459;64;20614;-38
2021/12/27 03:04:08;;;;;;;2.33;1.10;;;-12.20;99.90;;;;;;2215449;64;20112;-38
2021/12/27 03:06:41;;;;;;;3.70;1.30;;;-12.10;99.90;;;;;;2215357;64;20093;-38
2021/12/27 03:09:15;;;;;;;5.32;1.58;;;-12.20;99.90;;;;;;2212267;64;20186;-39
2021/12/27 03:11:48;;;;;;;4.63;0.97;;;-12.30;99.90;;;;;;2215460;64;20077;-38
2021/12/27 03:14:23;;;;;;;4.30;1.70;;;-12.40;99.90;;;;;;2215661;64;20085;-39
2021/12/27 03:16:55;;;;;;;6.07;1.63;;;-12.40;99.90;;;;;;2216317;64;20549;-38
2021/12/27 03:19:28;;;;;;;2.93;1.03;;;-12.50;99.90;;;;;;2219491;64;20085;-38
2021/12/27 03:22:01;;;;;;;6.77;1.60;;;-12.50;99.90;;;;;;2216495;64;20100;-45
2021/12/27 03:24:35;;;;;;;9.50;3.10;;;-12.50;99.90;;;;;;2219570;64;20548;-38
2021/12/27 03:27:07;;;;;;;6.43;2.57;;;-12.50;99.90;;;;;;2219464;64;20475;-40
2021/12/27 03:29:41;;;;;;;5.23;1.97;;;-12.50;99.90;;;;;;2219594;64;20081;-39
2021/12/27 03:32:18;;;;;;;5.80;1.27;;;-12.50;99.90;;;;;;2215830;64;20131;-39
2021/12/27 03:34:57;;;;;;;1.07;0.73;;;-12.50;99.90;;;;;;2216044;64;20097;-41
2021/12/27 03:37:31;;;;;;;3.93;0.87;;;-12.60;99.90;;;;;;2216286;64;20092;-38
2021/12/27 03:40:05;;;;;;;6.07;1.10;;;-12.60;99.90;;;;;;2219251;64;20089;-39
2021/12/27 03:42:41;;;;;;;9.95;2.75;;;-12.60;99.90;;;;;;2208431;64;20098;-39
2021/12/27 03:45:13;;;;;;;6.43;2.23;;;-12.60;99.90;;;;;;2208336;64;20077;-40
2021/12/27 03:47:48;;;;;;;5.03;1.67;;;-12.70;99.90;;;;;;2208271;64;20112;-41
2021/12/27 03:50:24;;;;;;;5.87;2.77;;;-12.70;99.90;;;;;;2205347;64;20211;-39
2021/12/27 03:53:01;;;;;;;3.40;0.83;;;-12.70;99.90;;;;;;2208002;64;20114;-39
2021/12/27 03:55:34;;;;;;;5.37;2.23;;;-12.80;99.90;;;;;;2208155;64;20104;-39
2021/12/27 03:58:22;;;;;;;5.87;1.93;;;-12.80;99.90;;;;;;2208270;64;20180;-39
2021/12/27 04:03:28;;;;;;;4.03;1.70;;;-12.90;99.90;;;;;;2196959;65;20185;-39
2021/12/27 04:06:03;;;;;;;4.40;1.30;;;-12.90;99.90;;;;;;2196934;65;20095;-40
2021/12/27 04:08:35;;;;;;;7.40;2.67;;;-13.00;99.90;;;;;;2196834;65;20091;-40
2021/12/27 04:11:08;;;;;;;8.73;2.80;;;-13.00;99.90;;;;;;2200233;65;20087;-39
2021/12/27 04:13:42;;;;;;;6.10;2.27;;;-13.00;99.90;;;;;;2196722;65;20173;-38
2021/12/27 04:16:16;;;;;;;6.80;2.10;;;-12.90;99.90;;;;;;2199939;65;20098;-40
2021/12/27 04:18:48;;;;;;;5.20;2.13;;;-12.90;99.90;;;;;;2199811;65;20563;-38
2021/12/27 04:21:21;;;;;;;3.17;1.17;;;-12.90;99.90;;;;;;2211501;64;20170;-40
2021/12/27 04:23:54;;;;;;;8.00;1.90;;;-13.00;99.90;;;;;;2208403;64;20223;-40
2021/12/27 04:26:28;;;;;;;4.23;1.83;;;-13.00;99.90;;;;;;2205129;64;20280;-39
2021/12/27 04:29:00;;;;;;;3.47;1.20;;;-13.00;99.90;;;;;;2208393;64;20655;-39
2021/12/27 04:31:35;;;;;;;7.97;1.83;;;-13.00;99.90;;;;;;2208281;64;20090;-40
2021/12/27 04:34:11;;;;;;;2.50;1.00;;;-13.00;99.90;;;;;;2207984;64;20086;-38
2021/12/27 04:36:45;;;;;;;6.37;1.70;;;-13.00;99.90;;;;;;2207425;64;20120;-38
2021/12/27 04:39:19;;;;;;;2.78;1.23;;;-12.90;99.90;;;;;;2214102;64;20092;-40
2021/12/27 04:41:52;;;;;;;2.05;0.80;;;-12.90;99.90;;;;;;2209114;64;20101;-38
2021/12/27 04:44:26;;;;;;;4.03;2.13;;;-12.90;99.90;;;;;;2215259;64;20222;-38
2021/12/27 04:47:00;;;;;;;5.57;1.95;;;-12.80;99.90;;;;;;2214998;64;20093;-37
2021/12/27 04:49:35;;;;;;;4.53;1.23;;;-12.80;99.90;;;;;;2212051;64;20585;-38
2021/12/27 04:52:09;;;;;;;;;;;-12.80;99.90;;;;;;2212184;64;20085;-38
2021/12/27 04:54:44;;;;;;;5.32;2.22;;;-12.80;99.90;;;;;;2211905;64;20508;-38
2021/12/27 04:57:18;;;;;;;5.93;1.77;;;-12.80;99.90;;;;;;2214951;64;20089;-39
2021/12/27 04:59:53;;;;;;;6.28;2.65;;;-12.70;99.90;;;;;;2211784;64;20097;-39
2021/12/27 05:02:27;;;;;;;6.63;2.53;;;-12.70;99.90;;;;;;2211699;64;20639;-39
2021/12/27 05:05:00;;;;;;;6.05;2.35;;;-12.70;99.90;;;;;;2214784;64;20128;-37
2021/12/27 05:07:35;;;;;;;5.07;2.30;;;-12.60;99.90;;;;;;2211898;64;20089;-39
2021/12/27 05:10:07;;;;;;;4.20;1.55;;;-12.50;99.90;;;;;;2211795;64;20160;-39
2021/12/27 05:12:39;;;;;;;8.87;2.40;;;-12.40;99.90;;;;;;2214788;64;20092;-40
2021/12/27 05:15:13;;;;;;;7.80;2.83;;;-12.50;99.90;;;;;;2215244;64;20109;-37
2021/12/27 05:17:46;;;;;;;8.30;2.40;;;-12.50;99.90;;;;;;2215768;64;20563;-38
2021/12/27 05:20:22;;;;;;;3.55;1.80;;;-12.50;99.90;;;;;;2216039;64;20081;-37
2021/12/27 05:22:56;;;;;;;;;;;-12.50;99.90;;;;;;2204809;64;20132;-39
2021/12/27 05:25:30;;;;;;;4.95;2.25;;;-12.50;99.90;;;;;;2204981;64;19969;-39
2021/12/27 05:28:03;;;;;;;9.00;2.47;;;-12.50;99.90;;;;;;2207967;64;20098;-38
2021/12/27 05:30:38;;;;;;;7.30;2.40;;;-12.50;99.90;;;;;;2201985;64;20111;-39
2021/12/27 05:33:12;;;;;;;;;;;-12.60;99.90;;;;;;2205267;64;20501;-37
2021/12/27 05:35:47;;;;;;;8.40;2.67;;;-12.50;99.90;;;;;;2210885;64;20046;-38
2021/12/27 05:38:21;;;;;;;6.87;2.33;;;-12.50;99.90;;;;;;2207737;64;20179;-37
2021/12/27 05:40:56;;;;;;;5.13;2.78;;;-12.40;99.90;;;;;;2209624;64;20142;-39
2021/12/27 05:43:31;;;;;;;3.20;1.60;;;-12.40;99.90;;;;;;2215440;64;20103;-38
2021/12/27 05:46:06;;;;;;;11.60;3.35;;;-12.30;99.90;;;;;;2212530;64;20151;-39
2021/12/27 05:48:43;;;;;;;8.80;4.50;;;-12.30;99.90;;;;;;2215552;64;20210;-37
2021/12/27 05:51:18;;;;;;;8.27;2.97;;;-12.20;99.90;;;;;;2215438;64;20144;-38
2021/12/27 05:53:54;;;;;;;;;;;-12.10;99.90;;;;;;2212828;64;20096;-38
2021/12/27 05:56:27;;;;;;;6.90;2.70;;;-11.90;99.90;;;;;;2213043;64;20590;-38
2021/12/27 05:59:01;;;;;;;4.55;1.85;;;-11.70;99.90;;;;;;2216342;64;20084;-38
2021/12/27 06:01:35;;;;;;;8.03;2.70;;;-11.60;99.90;;;;;;2217156;64;20120;-38
2021/12/27 06:04:09;;;;;;;6.18;1.75;;;-11.40;99.90;;;;;;2220554;64;20104;-37
2021/12/27 06:06:44;;;;;;;9.68;3.15;;;-11.10;99.90;;;;;;2220418;64;20553;-38
2021/12/27 06:09:18;;;;;;;13.13;3.60;;;-10.80;99.90;;;;;;2220422;64;20088;-38
2021/12/27 06:11:54;;;;;;;4.83;1.17;;;-10.70;99.90;;;;;;2216658;64;20081;-38
2021/12/27 06:14:28;;;;;;;10.40;3.15;;;-10.50;99.90;;;;;;2220223;64;20127;-38
2021/12/27 06:17:04;;;;;;;5.37;2.17;;;-10.50;99.90;;;;;;2220396;64;20073;-39
2021/12/27 06:19:38;;;;;;;7.83;4.37;;;-10.40;99.90;;;;;;2217438;64;20092;-38
2021/12/27 06:22:11;;;;;;;7.88;3.28;;;-10.10;99.90;;;;;;2220303;64;20422;-38
2021/12/27 06:24:47;;;;;;;7.73;2.90;;;-10.00;99.90;;;;;;2217270;64;20144;-38
2021/12/27 06:27:24;;;;;;;7.37;2.50;;;-9.80;99.90;;;;;;2213543;64;20572;-39
2021/12/27 06:30:03;;;;;;;7.13;2.30;;;-9.70;99.90;;;;;;2220333;64;20096;-38
2021/12/27 06:32:39;;;;;;;7.87;2.37;;;-9.60;99.90;;;;;;2220191;64;20097;-38
2021/12/27 06:35:12;;;;;;;4.30;1.97;;;-9.40;99.90;;;;;;2217405;64;20591;-41
2021/12/27 06:37:44;;;;;;;5.43;2.47;;;-9.10;99.90;;;;;;2217224;64;20123;-40
2021/12/27 06:40:17;;;;;;;5.77;2.17;;;-8.90;99.90;;;;;;2220250;64;20592;-39
2021/12/27 06:42:51;;;;;;;5.50;1.50;;;-8.80;99.90;;;;;;2220154;64;20548;-39
2021/12/27 06:45:28;;;;;;;5.10;1.93;;;-8.70;99.90;;;;;;2220306;64;20467;-39
2021/12/27 06:48:02;;;;;;;3.27;1.30;;;-8.60;99.90;;;;;;2220327;64;20215;-40
2021/12/27 06:50:35;;;;;;;8.97;2.53;;;-8.50;99.90;;;;;;2220189;64;20088;-40
2021/12/27 06:53:17;;;;;;;5.33;1.80;;;-8.00;99.90;;;;;;2220188;64;20198;-41
2021/12/27 06:55:51;;;;;;;6.50;1.83;;;-7.70;99.90;;;;;;2220181;64;20088;-43
2021/12/27 06:58:25;;;;;;;5.07;2.67;;;-7.70;99.90;;;;;;2220147;64;20181;-45
2021/12/27 07:01:00;;;;;;;6.17;2.07;;;-7.30;99.90;;;;;;2220267;64;20103;-46
2021/12/27 07:03:33;;;;;;;6.47;2.30;;;-7.30;99.90;;;;;;2220338;64;20168;-42
2021/12/27 07:06:07;;;;;;;7.60;2.20;;;-7.10;99.90;;;;;;2223173;64;20093;-41
2021/12/27 07:08:41;;;;;;;6.00;2.53;;;-7.00;99.90;;;;;;2220395;64;20526;-41
2021/12/27 07:11:15;;;;;;;5.50;1.70;;;-7.00;99.90;;;;;;2220387;64;20080;-40
2021/12/27 07:13:52;;;;;;;5.20;1.87;;;-6.90;99.90;;;;;;2220176;64;20124;-38
2021/12/27 07:16:28;;;;;;;8.27;3.47;;;-6.60;99.90;;;;;;2220192;64;20097;-39
2021/12/27 07:19:03;;;;;;;8.53;3.70;;;-6.60;99.90;;;;;;2220195;64;20441;-39
2021/12/27 07:21:38;;;;;;;7.45;2.35;;;-6.30;99.90;;;;;;2217149;64;20205;-39
2021/12/27 07:24:19;;;;;;;5.60;2.47;;;-6.30;99.90;;;;;;2217338;64;20110;-38
2021/12/27 07:26:52;;;;;;;7.43;2.33;;;-6.40;99.90;;;;;;2220101;64;20150;-40
2021/12/27 07:29:26;;;;;;;11.50;3.40;;;-5.90;99.90;;;;;;2220256;64;20108;-39
2021/12/27 07:32:01;;;;;;;7.20;2.60;;;-6.10;99.90;;;;;;2223019;64;20198;-39
2021/12/27 07:34:33;;;;;;;6.00;2.27;;;-5.80;99.90;;;;;;2223343;64;20097;-38
2021/12/27 07:37:05;;;;;;;4.90;1.70;;;-6.30;99.90;;;;;;2220127;64;20600;-38
2021/12/27 07:39:37;;;;;;;4.93;2.10;;;-5.90;99.90;;;;;;2223283;64;20132;-40
2021/12/27 07:42:13;;;;;;;3.77;2.00;;;-5.70;99.90;;;;;;2220207;64;20111;-37
2021/12/27 07:44:46;;;;;;;;;;;-5.40;99.90;;;;;;2223415;64;20073;-37
2021/12/27 07:47:20;;;;;;;6.27;2.63;;;-6.00;99.90;;;;;;2220113;64;19980;-37
2021/12/27 07:49:51;;;;;;;3.87;1.67;;;-6.30;99.90;;;;;;2223158;64;20100;-35
2021/12/27 07:52:24;;;;;;;10.07;3.27;;;-6.60;99.90;;;;;;2223056;64;20131;-35
2021/12/27 07:54:56;;;;;;;6.83;3.17;;;-6.50;99.90;;;;;;2223137;64;20081;-36
2021/12/27 07:57:30;;;;;;;5.87;1.63;;;-6.50;99.90;;;;;;2220083;64;20468;-35
2021/12/27 08:00:04;;;;;;;8.27;2.17;;;-6.70;99.90;;;;;;2219920;64;20158;-38
2021/12/27 08:02:40;;;;;;;9.20;2.90;;;-6.50;99.90;;;;;;2223111;64;20103;-37
2021/12/27 08:05:14;;;;;;;8.33;3.37;;;-6.70;99.90;;;;;;2218871;64;20089;-37
2021/12/27 08:07:46;;;;;;;8.63;3.80;;;-6.70;99.90;;;;;;2215759;64;20089;-38
2021/12/27 08:10:18;;;;;;;8.37;2.70;;;-7.00;99.90;;;;;;2212606;64;20645;-39
2021/12/27 08:12:50;;;;;;;5.23;2.20;;;-6.90;99.90;;;;;;2218701;64;20666;-38
2021/12/27 08:15:23;;;;;;;5.00;2.47;;;-7.30;99.90;;;;;;2215913;64;20531;-38
2021/12/27 08:17:56;;;;;;;5.77;2.30;;;-7.00;99.90;;;;;;2218979;64;20096;-39
2021/12/27 08:20:31;;;;;;;6.28;2.50;;;-7.10;99.90;;;;;;2218943;64;20162;-39
2021/12/27 08:23:03;;;;;;;2.58;1.42;;;-7.00;99.90;;;;;;2215867;64;20080;-41
2021/12/27 08:25:36;;;;;;;6.17;2.53;;;-6.80;99.90;;;;;;2218870;64;20595;-42
2021/12/27 08:28:09;;;;;;;2.03;1.13;;;-6.70;99.90;;;;;;2215777;64;20096;-42
2021/12/27 08:30:41;;;;;;;5.77;2.33;;;-6.70;99.90;;;;;;2215709;64;20076;-41
2021/12/27 08:33:13;;;;;;;4.13;2.10;;;-6.70;99.90;;;;;;2218733;64;20519;-41
2021/12/27 08:35:45;;;;;;;4.37;1.60;;;-6.90;99.90;;;;;;2219015;64;20096;-42
2021/12/27 08:38:18;;;;;;;7.10;2.10;;;-6.70;99.90;;;;;;2215670;64;20100;-41
2021/12/27 08:40:50;;;;;;;5.97;2.50;;;-6.70;99.90;;;;;;2217185;64;20093;-41
2021/12/27 08:43:22;;;;;;;4.80;2.33;;;-7.10;99.90;;;;;;2218418;64;20112;-39
2021/12/27 08:45:54;;;;;;;7.80;2.67;;;-7.20;99.90;;;;;;2219653;64;20095;-42
2021/12/27 08:48:31;;;;;;;3.42;1.40;;;-7.20;99.90;;;;;;2219901;64;20100;-40
2021/12/27 08:51:07;;;;;;;5.10;2.17;;;-7.20;99.90;;;;;;2219886;64;20096;-41
2021/12/27 08:53:39;;;;;;;4.33;2.00;;;-7.30;99.90;;;;;;2219751;64;20560;-41
2021/12/27 08:56:11;;;;;;;4.07;2.33;;;-7.50;99.90;;;;;;2219758;64;20077;-40
2021/12/27 08:58:46;;;;;;;4.60;2.50;;;-7.40;99.90;;;;;;2215526;64;20081;-39
2021/12/27 09:01:19;;;;;;;4.53;2.00;;;-7.50;99.90;;;;;;2215763;64;20125;-41
2021/12/27 09:03:51;;;;;;;4.97;2.60;;;-7.50;99.90;;;;;;2215636;64;20104;-39
2021/12/27 09:06:23;;;;;;;7.47;1.77;;;-7.40;99.90;;;;;;2215457;64;20182;-40
2021/12/27 09:08:55;;;;;;;6.83;3.10;;;-7.20;99.90;;;;;;2215813;64;20250;-39
2021/12/27 09:11:26;;;;;;;4.83;2.10;;;-7.40;99.90;;;;;;2215682;64;20084;-41
2021/12/27 09:13:58;;;;;;;9.63;2.00;;;-7.30;99.90;;;;;;2215352;64;20601;-42
2021/12/27 09:16:33;;;;;;;4.07;1.87;;;-7.70;99.90;;;;;;2215616;64;20561;-40
2021/12/27 09:19:08;;;;;;;5.87;2.17;;;-7.60;99.90;;;;;;2215509;64;20087;-41
2021/12/27 09:21:39;;;;;;;5.33;2.23;;;-7.50;99.90;;;;;;2215644;64;20090;-40
2021/12/27 09:24:11;;;;;;;5.57;2.37;;;-7.50;99.90;;;;;;2215574;64;20104;-39
2021/12/27 09:26:43;;;;;;;4.97;1.80;;;-7.70;99.90;;;;;;2215487;64;20100;-42
2021/12/27 09:29:15;;;;;;;6.93;2.43;;;-7.80;99.90;;;;;;2215986;64;20111;-40
2021/12/27 09:31:47;;;;;;;7.60;2.60;;;-7.60;99.90;;;;;;2216451;64;20096;-40
2021/12/27 09:34:19;;;;;;;2.93;1.67;;;-7.90;99.90;;;;;;2216243;64;20104;-40
2021/12/27 09:36:51;;;;;;;5.33;2.77;;;-7.90;99.90;;;;;;2218930;64;20165;-40
2021/12/27 09:39:23;;;;;;;4.50;2.00;;;-7.90;99.90;;;;;;2223392;64;20472;-40
2021/12/27 09:41:55;;;;;;;4.07;1.83;;;-7.90;99.90;;;;;;2209463;64;20450;-40
2021/12/27 09:44:26;;;;;;;8.50;3.07;;;-7.70;99.90;;;;;;2216535;64;20528;-40
2021/12/27 09:46:58;;;;;;;3.60;2.30;;;-7.40;99.90;;;;;;2216485;64;20089;-41
2021/12/27 09:49:30;;;;;;;5.23;2.33;;;-7.20;99.90;;;;;;2216440;64;20565;-41
2021/12/27 09:52:02;;;;;;;6.23;3.27;;;-6.90;99.90;;;;;;2216375;64;20103;-42
2021/12/27 09:54:37;;;;;;;2.67;1.23;;;-6.70;99.90;;;;;;2212537;64;20101;-43
2021/12/27 09:57:09;;;;;;;5.85;1.70;;;-5.80;99.90;;;;;;2216438;64;20096;-43
2021/12/27 09:59:41;;;;;;;3.50;1.50;;;-5.80;99.90;;;;;;2216534;64;20108;-42
2021/12/27 10:02:13;;;;;;;4.87;1.73;;;-6.40;99.90;;;;;;2216419;64;20081;-40
2021/12/27 10:04:45;;;;;;;5.20;3.00;;;-6.50;99.90;;;;;;2216401;64;20089;-40
2021/12/27 10:07:23;;;;;;;5.43;2.40;;;-6.80;99.90;;;;;;2213552;64;20097;-41
2021/12/27 10:09:58;;;;;;;6.77;2.60;;;-6.60;99.90;;;;;;2216417;64;20239;-40
2021/12/27 10:12:30;;;;;;;12.57;2.70;;;-6.60;99.90;;;;;;2216333;64;20097;-38
2021/12/27 10:15:07;;;;;;;6.30;2.43;;;-6.90;99.90;;;;;;2216243;64;20515;-39
2021/12/27 10:17:38;;;;;;;5.10;2.23;;;-7.20;99.90;;;;;;2216410;64;20457;-41
2021/12/27 10:20:15;;;;;;;6.13;2.70;;;-7.40;99.90;;;;;;2216433;64;20476;-39
2021/12/27 10:22:55;;;;;;;6.17;2.30;;;-7.50;99.90;;;;;;2216339;64;20522;-39
2021/12/27 10:25:34;;;;;;;;;;;-7.60;99.90;;;;;;2216605;64;20096;-40
2021/12/27 10:28:09;;;;;;;6.77;2.20;;;-7.30;99.90;;;;;;2216462;64;20046;-41
2021/12/27 10:30:44;;;;;;;9.33;2.60;;;-7.30;99.90;;;;;;2219522;64;20097;-40
2021/12/27 10:33:23;;;;;;;5.67;2.13;;;-7.30;99.90;;;;;;2216219;64;20547;-41
2021/12/27 10:35:57;;;;;;;5.87;1.43;;;-7.30;99.90;;;;;;2216311;64;20081;-40
2021/12/27 10:38:31;;;;;;;4.13;1.75;;;-6.90;99.90;;;;;;2216526;64;20081;-41
2021/12/27 10:41:10;;;;;;;4.73;1.90;;;-6.60;99.90;;;;;;2218806;64;20080;-42
2021/12/27 10:43:52;;;;;;;5.10;1.93;;;-6.70;99.90;;;;;;2220536;64;20099;-42
2021/12/27 10:46:28;;;;;;;5.83;1.27;;;-6.90;99.90;;;;;;2218402;64;20089;-37
2021/12/27 10:49:06;;;;;;;13.23;1.63;;;-6.80;99.90;;;;;;2215240;64;20152;-37
2021/12/27 10:51:41;;;;;;;10.43;2.17;;;-6.90;99.90;;;;;;2208957;64;20288;-37
2021/12/27 10:54:13;;;;;;;7.93;2.87;;;-7.10;99.90;;;;;;2209162;64;20176;-37
2021/12/27 10:56:54;;;;;;;5.77;1.93;;;-7.20;99.90;;;;;;2215387;64;20089;-37
2021/12/27 10:59:32;;;;;;;3.83;1.77;;;-7.10;99.90;;;;;;2212341;64;20139;-36
2021/12/27 11:02:13;;;;;;;4.53;1.90;;;-7.10;99.90;;;;;;2212224;64;20084;-35
2021/12/27 11:04:48;;;;;;;8.53;3.13;;;-7.40;99.90;;;;;;2212190;64;20560;-39
2021/12/27 11:07:22;;;;;;;5.63;2.33;;;-7.60;99.90;;;;;;2212281;64;20225;-36
2021/12/27 11:09:56;;;;;;;5.27;2.40;;;-8.00;99.90;;;;;;2209282;64;20081;-35
2021/12/27 11:12:31;;;;;;;4.27;1.87;;;-7.90;99.90;;;;;;2212288;64;20170;-39
2021/12/27 11:15:10;;;;;;;;;;;-8.00;99.90;;;;;;2209268;64;20085;-39
2021/12/27 11:17:47;;;;;;;6.70;1.47;;;-8.10;99.90;;;;;;2212157;64;20079;-40
2021/12/27 11:20:21;;;;;;;7.50;2.40;;;-8.20;99.90;;;;;;2212080;64;20096;-40
2021/12/27 11:22:58;;;;;;;7.83;2.07;;;-8.10;99.90;;;;;;2204255;64;20203;-41
2021/12/27 11:25:39;;;;;;;5.07;2.30;;;-8.20;99.90;;;;;;2204516;64;20097;-42
2021/12/27 11:28:40;;;;;;;6.90;2.73;;;-8.10;99.90;;;;;;2207434;64;20098;-41
2021/12/27 11:31:19;;;;;;;5.33;2.43;;;-8.20;99.90;;;;;;2210257;64;20114;-40
2021/12/27 11:33:53;;;;;;;5.13;2.50;;;-8.00;99.90;;;;;;2205881;64;20085;-41
2021/12/27 11:36:28;;;;;;;4.88;3.08;;;-8.00;99.90;;;;;;2212174;64;20101;-43
2021/12/27 11:39:18;;;;;;;14.35;2.85;;;-8.30;99.90;;;;;;2212209;64;20146;-40
2021/12/27 11:42:17;;;;;;;5.47;1.97;;;-8.30;99.90;;;;;;2208563;64;20081;-41
2021/12/27 11:44:58;;;;;;;1.13;0.43;;;-8.20;99.90;;;;;;2208253;64;20085;-38
2021/12/27 11:47:37;;;;;;;7.67;2.87;;;-8.40;99.90;;;;;;2208171;64;20098;-39
2021/12/27 11:50:14;;;;;;;6.27;2.27;;;-8.50;99.90;;;;;;2208024;64;20149;-40
2021/12/27 11:52:51;;;;;;;6.70;2.17;;;-8.50;99.90;;;;;;2207350;64;20493;-38
2021/12/27 11:55:30;;;;;;;7.53;2.57;;;-8.40;99.90;;;;;;2202409;64;20135;-38
2021/12/27 11:58:08;;;;;;;7.13;2.47;;;-8.40;99.90;;;;;;2198510;64;20102;-38
2021/12/27 12:00:49;;;;;;;6.10;2.60;;;-8.40;99.90;;;;;;2211864;64;20485;-38
2021/12/27 12:03:45;;;;;;;6.23;1.90;;;-8.60;99.90;;;;;;2211845;64;20108;-38
2021/12/27 12:06:43;;;;;;;5.18;2.13;;;-8.60;99.90;;;;;;2211884;64;20131;-40
2021/12/27 12:09:20;;;;;;;3.63;1.80;;;-8.80;99.90;;;;;;2211051;64;20148;-36
2021/12/27 12:12:08;;;;;;;4.97;2.20;;;-8.80;99.90;;;;;;2211879;64;20093;-37
2021/12/27 12:14:42;;;;;;;9.20;2.87;;;-8.90;99.90;;;;;;2211647;64;20597;-39
2021/12/27 12:17:20;;;;;;;7.23;3.17;;;-9.00;99.90;;;;;;2214970;64;20089;-38
2021/12/27 12:19:54;;;;;;;4.57;2.37;;;-9.00;99.90;;;;;;2208918;64;20580;-39
2021/12/27 12:22:45;;;;;;;7.07;2.90;;;-9.10;99.90;;;;;;2214936;64;20160;-39
2021/12/27 12:25:23;;;;;;;6.03;2.30;;;-9.20;99.90;;;;;;2214999;64;20073;-38
2021/12/27 12:28:05;;;;;;;6.73;2.50;;;-9.30;99.90;;;;;;2211946;64;20236;-36
2021/12/27 12:30:53;;;;;;;6.00;2.77;;;-9.50;99.90;;;;;;2212131;64;20078;-39
2021/12/27 12:33:33;;;;;;;3.80;1.40;;;-9.60;99.90;;;;;;2212017;64;20108;-38
2021/12/27 12:36:11;;;;;;;5.20;1.83;;;-9.70;99.90;;;;;;2217333;64;20619;-39
2021/12/27 12:38:44;;;;;;;5.50;2.83;;;-9.80;99.90;;;;;;2215758;64;20145;-38
2021/12/27 12:41:17;;;;;;;6.07;2.60;;;-10.00;99.90;;;;;;2211586;64;20093;-38
2021/12/27 12:43:51;;;;;;;12.37;3.27;;;-10.10;99.90;;;;;;2211798;64;20571;-37
2021/12/27 12:46:49;;;;;;;9.70;2.57;;;-10.10;99.90;;;;;;2211727;64;20089;-41
2021/12/27 12:49:22;;;;;;;9.60;2.30;;;-10.20;99.90;;;;;;2211769;64;20488;-37
2021/12/27 12:51:55;;;;;;;5.03;2.30;;;-10.10;99.90;;;;;;2208623;64;20107;-38
2021/12/27 12:54:34;;;;;;;6.00;2.03;;;-10.20;99.90;;;;;;2202545;64;20113;-37
2021/12/27 12:57:14;;;;;;;3.40;2.10;;;-10.20;99.90;;;;;;2211830;64;20240;-37
2021/12/27 12:59:58;;;;;;;5.07;2.00;;;-10.30;99.90;;;;;;2211650;64;20160;-38
2021/12/27 13:02:36;;;;;;;6.97;1.90;;;-10.40;99.90;;;;;;2211896;64;20542;-37
2021/12/27 13:05:15;;;;;;;6.27;2.00;;;-10.50;99.90;;;;;;2208710;64;20290;-38
2021/12/27 13:07:50;;;;;;;3.23;1.67;;;-10.70;99.90;;;;;;2211642;64;20104;-35
2021/12/27 13:10:36;;;;;;;4.57;2.60;;;-10.70;99.90;;;;;;2205789;64;20368;-35
2021/12/27 13:13:12;;;;;;;8.60;3.40;;;-10.80;99.90;;;;;;2208696;64;20157;-37
2021/12/27 13:16:02;;;;;;;2.92;1.50;;;-10.80;99.90;;;;;;2211757;64;20557;-36
2021/12/27 13:18:40;;;;;;;5.87;2.67;;;-10.80;99.90;;;;;;2214744;64;20115;-38
2021/12/27 13:21:12;;;;;;;8.77;2.50;;;-10.90;99.90;;;;;;2222997;64;20108;-36
2021/12/27 13:23:46;;;;;;;7.57;3.47;;;-11.10;99.90;;;;;;2219860;64;20152;-37
2021/12/27 13:26:26;;;;;;;6.17;1.90;;;-11.20;99.90;;;;;;2222714;64;20096;-37